createdAt,value
2023-04-16T00:05:46.159Z,7.68
2023-04-16T00:25:46.319Z,7.66
2023-04-16T00:45:46.398Z,7.6
2023-04-16T01:05:46.358Z,7.5
2023-04-16T01:25:46.412Z,7.48
2023-04-16T01:45:46.504Z,7.49
2023-04-16T02:05:46.539Z,7.56
2023-04-16T02:25:46.576Z,7.53
2023-04-16T02:45:46.625Z,7.57
2023-04-16T03:05:46.586Z,7.6
2023-04-16T03:25:46.570Z,7.67
2023-04-16T03:45:46.638Z,7.63
2023-04-16T04:05:46.698Z,7.52
2023-04-16T04:25:46.744Z,7.56
2023-04-16T04:45:46.801Z,7.54
2023-04-16T05:05:46.834Z,7.65
2023-04-16T05:25:46.859Z,7.88
2023-04-16T05:45:46.902Z,7.95
2023-04-16T06:05:47.036Z,7.96
2023-04-16T06:25:46.974Z,7.94
2023-04-16T06:45:47.150Z,7.91
2023-04-16T07:05:47.082Z,8.06
2023-04-16T07:25:47.125Z,8.25
2023-04-16T07:45:47.087Z,8.54
2023-04-16T08:05:47.234Z,9.1
2023-04-16T08:25:47.198Z,9.43
2023-04-16T08:45:47.457Z,9.41
2023-04-16T09:05:47.358Z,9.23
2023-04-16T09:25:47.486Z,9.21
2023-04-16T09:45:47.464Z,9.28
2023-04-16T10:05:47.660Z,9.29
2023-04-16T10:25:47.630Z,9.42
2023-04-16T10:45:47.611Z,9.64
2023-04-16T11:05:47.619Z,9.53
2023-04-16T11:25:47.969Z,9.54
2023-04-16T11:45:47.656Z,9.53
2023-04-16T12:05:48.136Z,9.74
2023-04-16T12:25:47.649Z,9.92
2023-04-16T12:45:48.103Z,10.53
2023-04-16T13:05:47.892Z,10.9
2023-04-16T13:25:50.208Z,10.79
2023-04-16T13:45:47.686Z,10.95
2023-04-16T14:05:48.006Z,10.99
2023-04-16T14:25:48.903Z,10.78
2023-04-16T14:45:47.970Z,11.02
2023-04-16T15:05:48.025Z,10.61
2023-04-16T15:25:48.091Z,10.25
2023-04-16T15:45:48.360Z,10.12
2023-04-16T16:05:53.014Z,9.86
2023-04-16T16:25:48.271Z,9.84
2023-04-16T16:45:48.139Z,9.66
2023-04-16T17:05:48.134Z,9.47
2023-04-16T17:25:48.099Z,9.29
2023-04-16T17:45:48.299Z,9.18
2023-04-16T18:05:48.263Z,9.11
2023-04-16T18:25:48.972Z,9.1
2023-04-16T18:45:48.233Z,8.98
2023-04-16T19:05:48.409Z,8.83
2023-04-16T19:25:48.521Z,8.87
2023-04-16T19:45:48.403Z,8.78
2023-04-16T20:05:48.556Z,8.67
2023-04-16T20:45:48.538Z,8.44
2023-04-16T21:25:48.526Z,8.43
2023-04-16T21:45:48.606Z,8.42
2023-04-16T22:05:48.754Z,8.44
2023-04-16T22:25:48.721Z,8.3
2023-04-16T22:45:48.892Z,8.18
2023-04-16T23:05:48.796Z,7.97
2023-04-16T23:25:48.937Z,7.88
2023-04-16T23:45:48.909Z,7.92
